Sao Sebastiao, Brazil
Current Conditions -  °F | °C
As of 5:00 PM on Sunday 23 Nov 2014 (Local Time) from SBSJ Reporting Station
Broken Clouds Broken Clouds  
Wind Chill: 77°   Ceiling: 8000
Heat Index: 78°   Visibility: 6mi
Dew Point: 72°   Wind: 1mph
Humidity: 83%   Direction: 80°E
Pressure: 29.97"   Gusts: NA
Location:  23.79°S, 45.41°W
Report Text: SBSJ 231900Z 08001KT 9999 SCT030 BKN080 25/22 Q1015
Loading
Personal Weather Stations






























Interactive Weather Map New forecast layout! Learn more

10-Day Weather Forecast

Advertisements
Track Severe Weather on mobile